createdAt,value
2022-10-26T00:00:16.921Z,11.60
2022-10-26T00:03:05.370Z,11.50
2022-10-26T00:05:55.004Z,11.50
2022-10-26T00:08:43.470Z,11.50
2022-10-26T00:11:31.843Z,11.50
2022-10-26T00:14:20.172Z,11.40
2022-10-26T00:17:08.872Z,11.30
2022-10-26T00:19:57.896Z,11.20
2022-10-26T00:22:47.600Z,11.20
2022-10-26T00:25:35.951Z,11.10
2022-10-26T00:28:24.308Z,10.90
2022-10-26T00:31:15.613Z,10.90
2022-10-26T00:34:03.973Z,10.90
2022-10-26T00:36:52.318Z,10.80
2022-10-26T00:39:41.978Z,10.70
2022-10-26T00:42:30.282Z,10.60
2022-10-26T00:45:22.900Z,10.60
2022-10-26T00:48:25.889Z,10.50
2022-10-26T00:51:20.101Z,10.50
2022-10-26T00:54:13.938Z,10.50
2022-10-26T00:57:03.775Z,10.40
2022-10-26T00:59:54.271Z,10.30
2022-10-26T01:02:44.598Z,10.20
2022-10-26T01:05:33.934Z,10.30
2022-10-26T01:08:22.661Z,10.20
2022-10-26T01:11:11.983Z,10.20
2022-10-26T01:14:05.313Z,10.20
2022-10-26T01:20:45.311Z,10.30
2022-10-26T01:23:37.895Z,10.30
2022-10-26T01:26:49.966Z,10.30
2022-10-26T01:30:20.152Z,10.30
2022-10-26T01:33:21.541Z,10.20
2022-10-26T01:36:14.076Z,10.10
2022-10-26T01:39:10.143Z,10.20
2022-10-26T01:42:01.682Z,10.20
2022-10-26T01:44:54.393Z,10.20
2022-10-26T01:47:47.429Z,10.30
2022-10-26T01:50:37.235Z,10.20
2022-10-26T01:53:28.623Z,10.20
2022-10-26T01:56:21.533Z,10.20
2022-10-26T01:59:27.757Z,10.20
2022-10-26T02:02:42.589Z,10.20
2022-10-26T02:05:44.490Z,10.10
2022-10-26T02:08:58.352Z,10.10
2022-10-26T02:11:49.280Z,10.00
2022-10-26T02:14:46.701Z,9.90
2022-10-26T02:17:43.783Z,9.90
2022-10-26T02:20:37.087Z,9.80
2022-10-26T02:23:27.797Z,9.70
2022-10-26T02:26:21.063Z,9.80
2022-10-26T02:29:14.521Z,9.80
2022-10-26T02:32:04.434Z,9.70
2022-10-26T02:34:54.111Z,9.70
2022-10-26T02:37:46.863Z,9.80
2022-10-26T02:40:36.205Z,9.80
2022-10-26T02:43:25.851Z,9.70
2022-10-26T02:46:18.066Z,9.60
2022-10-26T02:49:06.747Z,9.60
2022-10-26T02:52:02.471Z,9.60
2022-10-26T02:54:55.290Z,9.60
2022-10-26T02:57:48.686Z,9.50
2022-10-26T03:00:37.201Z,9.50
2022-10-26T03:03:25.814Z,9.50
2022-10-26T03:06:14.275Z,9.50
2022-10-26T03:09:02.632Z,9.40
2022-10-26T03:11:52.350Z,9.40
2022-10-26T03:14:41.400Z,9.50
2022-10-26T03:17:29.774Z,9.40
2022-10-26T03:20:18.254Z,9.40
2022-10-26T03:23:06.578Z,9.40
2022-10-26T03:25:58.141Z,9.40
2022-10-26T03:28:47.825Z,9.30
2022-10-26T03:31:36.430Z,9.30
2022-10-26T03:34:24.834Z,9.30
2022-10-26T03:37:13.273Z,9.20
2022-10-26T03:40:01.593Z,9.20
2022-10-26T03:42:50.131Z,9.20
2022-10-26T03:45:40.000Z,9.20
2022-10-26T03:48:28.298Z,9.10
2022-10-26T03:51:16.612Z,9.10
2022-10-26T03:54:05.259Z,9.10
2022-10-26T03:56:55.224Z,9.10
2022-10-26T03:59:43.767Z,9.10
2022-10-26T04:02:34.063Z,9.00
2022-10-26T04:05:22.665Z,9.00
2022-10-26T04:08:11.530Z,9.00
2022-10-26T04:11:02.411Z,9.00
2022-10-26T04:13:52.876Z,8.90
2022-10-26T04:16:41.209Z,8.90
2022-10-26T04:19:30.843Z,8.80
2022-10-26T04:22:19.163Z,8.80
2022-10-26T04:25:08.622Z,8.80
2022-10-26T04:27:56.938Z,8.80
2022-10-26T04:30:45.277Z,8.80
2022-10-26T04:33:33.590Z,8.80
2022-10-26T04:36:23.271Z,8.80
2022-10-26T04:39:11.521Z,8.70
2022-10-26T04:41:59.832Z,8.70
2022-10-26T04:44:48.171Z,8.70
2022-10-26T04:47:36.498Z,8.60
2022-10-26T04:50:27.537Z,8.60
2022-10-26T04:53:18.339Z,8.60
2022-10-26T04:56:06.938Z,8.60
2022-10-26T04:58:55.517Z,8.50
2022-10-26T05:01:43.879Z,8.50
2022-10-26T05:04:32.248Z,8.50
2022-10-26T05:07:20.541Z,8.50
2022-10-26T05:10:11.014Z,8.40
2022-10-26T05:13:00.780Z,8.40
2022-10-26T05:15:49.079Z,8.40
2022-10-26T05:18:37.431Z,8.30
2022-10-26T05:21:26.148Z,8.30
2022-10-26T05:24:14.455Z,8.20
2022-10-26T05:27:04.309Z,8.30
2022-10-26T05:29:52.623Z,8.30
2022-10-26T05:32:40.935Z,8.20
2022-10-26T05:35:29.759Z,8.20
2022-10-26T05:38:18.967Z,8.30
2022-10-26T05:41:07.284Z,8.30
2022-10-26T05:43:56.916Z,8.20
2022-10-26T05:46:47.386Z,8.30
2022-10-26T05:49:35.670Z,8.30
2022-10-26T05:52:23.971Z,8.30
2022-10-26T05:55:14.109Z,8.30
2022-10-26T05:58:04.030Z,8.30
2022-10-26T06:01:19.801Z,8.40
2022-10-26T06:04:22.738Z,8.40
2022-10-26T06:07:13.727Z,8.50
2022-10-26T06:10:02.553Z,8.50
2022-10-26T06:12:51.830Z,8.50
2022-10-26T06:15:51.212Z,8.50
2022-10-26T06:18:49.007Z,8.50
2022-10-26T06:21:51.445Z,8.50
2022-10-26T06:24:47.637Z,8.60
2022-10-26T06:27:44.029Z,8.70
2022-10-26T06:30:32.414Z,8.70
2022-10-26T06:33:30.321Z,8.70
2022-10-26T06:36:26.976Z,8.80
2022-10-26T06:39:16.609Z,8.90
2022-10-26T06:42:05.523Z,8.90
2022-10-26T06:44:54.326Z,8.90
2022-10-26T06:47:50.755Z,9.00
2022-10-26T06:50:44.878Z,9.10
2022-10-26T06:56:34.459Z,9.20
2022-10-26T06:59:43.898Z,9.30
2022-10-26T07:02:32.459Z,9.30
2022-10-26T07:05:20.987Z,9.40
2022-10-26T07:08:09.348Z,9.50
2022-10-26T07:10:59.019Z,9.50
2022-10-26T07:13:47.419Z,9.60
2022-10-26T07:16:35.731Z,9.60
2022-10-26T07:19:24.668Z,9.70
2022-10-26T07:22:13.434Z,9.80
2022-10-26T07:25:03.126Z,9.90
2022-10-26T07:27:57.691Z,9.90
2022-10-26T07:30:46.008Z,10.00
2022-10-26T07:33:36.916Z,10.00
2022-10-26T07:36:30.878Z,10.00
2022-10-26T07:39:19.190Z,10.10
2022-10-26T07:42:07.871Z,10.20
2022-10-26T07:44:57.522Z,10.30
2022-10-26T07:47:46.236Z,10.40
2022-10-26T07:50:34.557Z,10.60
2022-10-26T07:53:27.534Z,10.70
2022-10-26T07:56:16.438Z,10.70
2022-10-26T07:59:04.996Z,10.80
2022-10-26T08:01:54.829Z,10.80
2022-10-26T08:04:44.000Z,10.90
2022-10-26T08:07:32.341Z,11.00
2022-10-26T08:10:20.699Z,11.10
2022-10-26T08:13:08.998Z,11.20
2022-10-26T08:16:00.885Z,11.30
2022-10-26T08:18:50.704Z,11.30
2022-10-26T08:21:40.686Z,11.40
2022-10-26T08:24:30.058Z,11.50
2022-10-26T08:27:18.764Z,11.60
2022-10-26T08:30:08.069Z,11.70
2022-10-26T08:33:00.351Z,11.70
2022-10-26T08:35:55.791Z,11.80
2022-10-26T08:38:44.105Z,11.90
2022-10-26T08:41:37.856Z,12.10
2022-10-26T08:44:30.434Z,12.10
2022-10-26T08:47:23.060Z,12.20
2022-10-26T08:50:15.841Z,12.30
2022-10-26T08:53:14.568Z,12.30
2022-10-26T08:56:10.763Z,12.40
2022-10-26T08:59:19.043Z,12.50
2022-10-26T09:02:13.467Z,12.60
2022-10-26T09:05:02.414Z,12.70
2022-10-26T09:07:58.668Z,12.80
2022-10-26T09:10:59.297Z,12.90
2022-10-26T09:13:59.882Z,13.00
2022-10-26T09:17:00.933Z,13.10
2022-10-26T09:20:03.634Z,13.20
2022-10-26T09:22:58.296Z,13.30
2022-10-26T09:25:51.382Z,13.40
2022-10-26T09:28:41.926Z,13.40
2022-10-26T09:31:43.758Z,13.50
2022-10-26T09:34:38.930Z,13.60
2022-10-26T09:37:29.598Z,13.60
2022-10-26T09:40:22.912Z,13.80
2022-10-26T09:43:18.374Z,13.80
2022-10-26T09:46:06.826Z,13.90
2022-10-26T09:48:59.917Z,14.00
2022-10-26T09:51:49.054Z,14.10
2022-10-26T09:54:37.393Z,14.30
2022-10-26T09:57:26.389Z,14.30
2022-10-26T10:00:19.063Z,14.40
2022-10-26T10:03:19.869Z,14.60
2022-10-26T10:06:19.934Z,14.80
2022-10-26T10:09:11.767Z,14.90
2022-10-26T10:12:03.144Z,15.00
2022-10-26T10:14:58.900Z,15.20
2022-10-26T10:17:53.223Z,15.20
2022-10-26T10:20:41.748Z,15.20
2022-10-26T10:23:32.940Z,15.20
2022-10-26T10:26:21.580Z,15.10
2022-10-26T10:29:17.409Z,15.10
2022-10-26T10:32:05.788Z,15.00
2022-10-26T10:34:56.988Z,15.00
2022-10-26T10:37:46.895Z,15.10
2022-10-26T10:40:35.819Z,15.20
2022-10-26T10:43:24.675Z,15.30
2022-10-26T10:46:20.650Z,15.50
2022-10-26T10:49:21.231Z,15.70
2022-10-26T10:52:25.886Z,15.80
2022-10-26T10:55:21.204Z,15.80
2022-10-26T10:58:17.621Z,15.80
2022-10-26T11:01:07.933Z,15.80
2022-10-26T11:04:26.237Z,15.80
2022-10-26T11:07:19.446Z,15.80
2022-10-26T11:10:14.628Z,15.90
2022-10-26T11:13:08.358Z,16.20
2022-10-26T11:16:01.594Z,16.50
2022-10-26T11:18:53.778Z,16.70
2022-10-26T11:21:45.511Z,16.80
2022-10-26T11:24:41.445Z,16.90
2022-10-26T11:27:35.537Z,16.90
2022-10-26T11:30:26.467Z,16.80
2022-10-26T11:33:17.143Z,16.80
2022-10-26T11:36:08.410Z,16.80
2022-10-26T11:39:06.617Z,16.90
2022-10-26T11:42:02.841Z,16.90
2022-10-26T11:44:56.702Z,16.90
2022-10-26T11:47:52.121Z,17.10
2022-10-26T11:50:45.672Z,17.20
2022-10-26T11:53:39.934Z,17.30
2022-10-26T11:56:32.941Z,17.40
2022-10-26T11:59:27.974Z,17.50
2022-10-26T12:02:21.850Z,17.60
2022-10-26T12:05:20.688Z,17.70
2022-10-26T12:08:15.241Z,17.80
2022-10-26T12:11:10.784Z,17.90
2022-10-26T12:14:03.419Z,18.00
2022-10-26T12:17:01.230Z,18.00
2022-10-26T12:19:55.097Z,18.10
2022-10-26T12:22:44.554Z,18.20
2022-10-26T12:25:32.930Z,18.30
2022-10-26T12:28:43.355Z,18.30
2022-10-26T12:31:45.110Z,18.20
2022-10-26T12:35:31.243Z,18.20
2022-10-26T12:38:58.798Z,18.30
2022-10-26T12:41:58.090Z,18.50
2022-10-26T12:45:03.018Z,18.80
2022-10-26T12:48:10.870Z,18.90
2022-10-26T12:51:44.356Z,18.80
2022-10-26T12:54:41.857Z,18.70
2022-10-26T12:57:37.055Z,18.60
2022-10-26T13:00:27.051Z,18.60
2022-10-26T13:03:30.454Z,18.50
2022-10-26T13:06:38.529Z,18.50
2022-10-26T13:09:33.148Z,18.40
2022-10-26T13:12:21.518Z,18.30
2022-10-26T13:15:22.583Z,18.30
2022-10-26T13:18:17.951Z,18.30
2022-10-26T13:21:11.680Z,18.30
2022-10-26T13:24:05.493Z,18.20
2022-10-26T13:27:40.746Z,18.20
2022-10-26T13:30:48.968Z,18.20
2022-10-26T13:33:39.356Z,18.30
2022-10-26T13:36:33.354Z,18.40
2022-10-26T13:39:25.089Z,18.50
2022-10-26T13:42:17.159Z,18.50
2022-10-26T13:45:10.254Z,18.50
2022-10-26T13:48:06.091Z,18.30
2022-10-26T13:53:55.319Z,18.20
2022-10-26T13:56:56.192Z,18.20
2022-10-26T13:59:45.473Z,18.10
2022-10-26T14:02:35.167Z,18.10
2022-10-26T14:05:24.271Z,18.00
2022-10-26T14:08:17.978Z,18.00
2022-10-26T14:11:06.591Z,17.90
2022-10-26T14:13:55.190Z,17.90
2022-10-26T14:16:46.606Z,17.90
2022-10-26T14:19:39.287Z,17.90
2022-10-26T14:22:30.077Z,17.80
2022-10-26T14:25:26.655Z,17.70
2022-10-26T14:28:27.338Z,17.70
2022-10-26T14:31:23.816Z,17.70
2022-10-26T14:34:13.521Z,17.60
2022-10-26T14:37:05.312Z,17.50
2022-10-26T14:39:53.828Z,17.50
2022-10-26T14:42:45.803Z,17.40
2022-10-26T14:45:48.218Z,17.30
2022-10-26T14:48:37.284Z,17.30
2022-10-26T14:51:29.957Z,17.20
2022-10-26T14:54:25.052Z,17.10
2022-10-26T14:57:32.351Z,17.10
2022-10-26T15:00:22.868Z,17.10
2022-10-26T15:03:17.798Z,17.10
2022-10-26T15:06:30.312Z,17.00
2022-10-26T15:09:38.378Z,17.00
2022-10-26T15:12:33.452Z,17.00
2022-10-26T15:15:24.080Z,17.00
2022-10-26T15:18:22.386Z,17.00
2022-10-26T15:21:24.203Z,17.00
2022-10-26T15:24:29.522Z,17.00
2022-10-26T15:27:20.798Z,17.00
2022-10-26T15:30:33.023Z,16.90
2022-10-26T15:33:22.376Z,16.80
2022-10-26T15:36:15.566Z,16.70
2022-10-26T15:39:03.915Z,16.60
2022-10-26T15:41:53.601Z,16.50
2022-10-26T15:44:43.286Z,16.40
2022-10-26T15:47:34.839Z,16.40
2022-10-26T15:50:24.820Z,16.30
2022-10-26T15:53:19.710Z,16.30
2022-10-26T15:56:14.925Z,16.20
2022-10-26T15:59:03.245Z,16.10
2022-10-26T16:01:53.148Z,16.10
2022-10-26T16:04:41.519Z,16.00
2022-10-26T16:07:29.887Z,16.00
2022-10-26T16:10:21.783Z,16.00
2022-10-26T16:13:13.898Z,15.90
2022-10-26T16:16:02.786Z,15.90
2022-10-26T16:19:11.790Z,15.90
2022-10-26T16:22:04.854Z,15.80
2022-10-26T16:24:53.207Z,15.80
2022-10-26T16:27:41.616Z,15.70
2022-10-26T16:30:31.340Z,15.70
2022-10-26T16:33:19.697Z,15.70
2022-10-26T16:36:12.178Z,15.60
2022-10-26T16:41:53.706Z,15.60
2022-10-26T16:44:41.990Z,15.60
2022-10-26T16:47:30.334Z,15.60
2022-10-26T16:50:21.185Z,15.60
2022-10-26T16:53:10.683Z,15.50
2022-10-26T16:56:03.538Z,15.40
2022-10-26T16:58:52.332Z,15.40
2022-10-26T17:01:40.737Z,15.30
2022-10-26T17:04:29.136Z,15.20
2022-10-26T17:07:17.554Z,15.10
2022-10-26T17:10:07.850Z,15.00
2022-10-26T17:12:57.249Z,14.80
2022-10-26T17:15:45.788Z,14.70
2022-10-26T17:18:34.152Z,14.60
2022-10-26T17:21:29.710Z,14.60
2022-10-26T17:24:19.000Z,14.60
2022-10-26T17:27:09.670Z,14.60
2022-10-26T17:29:57.976Z,14.50
2022-10-26T17:32:46.342Z,14.60
2022-10-26T17:35:35.502Z,14.50
2022-10-26T17:38:23.865Z,14.40
2022-10-26T17:41:14.074Z,14.40
2022-10-26T17:44:03.732Z,14.30
2022-10-26T17:46:52.141Z,14.30
2022-10-26T17:49:40.434Z,14.20
2022-10-26T17:52:28.742Z,14.20
2022-10-26T17:55:17.224Z,14.20
2022-10-26T17:58:05.518Z,14.10
2022-10-26T18:00:55.127Z,14.00
2022-10-26T18:03:43.464Z,13.90
2022-10-26T18:06:31.741Z,13.90
2022-10-26T18:09:20.379Z,13.80
2022-10-26T18:12:10.681Z,13.80
2022-10-26T18:14:59.146Z,13.80
2022-10-26T18:17:52.445Z,13.80
2022-10-26T18:20:42.791Z,13.80
2022-10-26T18:23:31.193Z,13.80
2022-10-26T18:26:21.807Z,13.80
2022-10-26T18:29:13.708Z,13.90
2022-10-26T18:32:02.024Z,13.90
2022-10-26T18:34:51.715Z,13.80
2022-10-26T18:37:40.019Z,13.80
2022-10-26T18:40:28.343Z,13.80
2022-10-26T18:43:16.629Z,13.80
2022-10-26T18:46:06.381Z,13.70
2022-10-26T18:48:55.087Z,13.70
2022-10-26T18:51:44.736Z,13.70
2022-10-26T18:54:33.016Z,13.60
2022-10-26T18:57:26.818Z,13.60
2022-10-26T19:00:15.897Z,13.60
2022-10-26T19:03:05.416Z,13.60
2022-10-26T19:05:53.709Z,13.50
2022-10-26T19:08:44.415Z,13.60
2022-10-26T19:11:33.709Z,13.50
2022-10-26T19:14:22.069Z,13.60
2022-10-26T19:17:10.858Z,13.60
2022-10-26T19:19:59.160Z,13.60
2022-10-26T19:22:48.110Z,13.70
2022-10-26T19:25:37.940Z,13.80
2022-10-26T19:28:26.318Z,13.80
2022-10-26T19:31:15.960Z,13.90
2022-10-26T19:34:04.763Z,13.90
2022-10-26T19:36:53.075Z,14.00
2022-10-26T19:39:41.835Z,14.10
2022-10-26T19:42:31.543Z,14.10
2022-10-26T19:45:19.916Z,14.10
2022-10-26T19:48:08.294Z,14.00
2022-10-26T19:50:57.681Z,14.10
2022-10-26T19:53:46.007Z,14.10
2022-10-26T19:56:35.039Z,14.10
2022-10-26T19:59:24.726Z,14.00
2022-10-26T20:02:13.013Z,14.00
2022-10-26T20:05:01.335Z,13.90
2022-10-26T20:07:49.694Z,13.90
2022-10-26T20:10:42.395Z,13.90
2022-10-26T20:13:30.729Z,13.80
2022-10-26T20:16:20.416Z,13.80
2022-10-26T20:19:08.869Z,13.80
2022-10-26T20:21:57.194Z,13.70
2022-10-26T20:24:45.548Z,13.70
2022-10-26T20:27:33.900Z,13.70
2022-10-26T20:30:22.209Z,13.70
2022-10-26T20:33:12.763Z,13.70
2022-10-26T20:36:01.334Z,13.70
2022-10-26T20:38:50.237Z,13.70
2022-10-26T20:41:43.135Z,13.70
2022-10-26T20:44:36.439Z,13.70
2022-10-26T20:47:25.420Z,13.70
2022-10-26T20:50:16.638Z,13.70
2022-10-26T20:53:11.731Z,13.70
2022-10-26T20:56:01.737Z,13.70
2022-10-26T20:58:53.790Z,13.70
2022-10-26T21:01:42.619Z,13.70
2022-10-26T21:04:31.136Z,13.70
2022-10-26T21:07:20.833Z,13.70
2022-10-26T21:10:09.746Z,13.70
2022-10-26T21:12:58.023Z,13.70
2022-10-26T21:15:46.356Z,13.70
2022-10-26T21:18:34.690Z,13.70
2022-10-26T21:21:22.981Z,13.70
2022-10-26T21:24:12.963Z,13.70
2022-10-26T21:27:01.218Z,13.70
2022-10-26T21:29:49.577Z,13.70
2022-10-26T21:32:37.988Z,13.70
2022-10-26T21:35:26.382Z,13.70
2022-10-26T21:38:14.741Z,13.70
2022-10-26T21:41:05.564Z,13.60
2022-10-26T21:44:03.389Z,13.60
2022-10-26T21:46:58.127Z,13.60
2022-10-26T21:49:46.526Z,13.50
2022-10-26T21:52:34.868Z,13.50
2022-10-26T21:55:23.178Z,13.50
2022-10-26T21:58:13.370Z,13.50
2022-10-26T22:01:12.131Z,13.40
2022-10-26T22:04:00.534Z,13.30
2022-10-26T22:06:48.840Z,13.30
2022-10-26T22:09:44.893Z,13.30
2022-10-26T22:12:45.502Z,13.30
2022-10-26T22:15:35.196Z,13.30
2022-10-26T22:18:23.520Z,13.30
2022-10-26T22:21:12.669Z,13.30
2022-10-26T22:24:00.980Z,13.20
2022-10-26T22:26:49.370Z,13.10
2022-10-26T22:29:37.676Z,13.10
2022-10-26T22:32:27.349Z,13.10
2022-10-26T22:35:28.920Z,13.00
2022-10-26T22:38:17.554Z,13.00
2022-10-26T22:41:06.268Z,13.00
2022-10-26T22:43:54.609Z,13.00
2022-10-26T22:46:42.886Z,13.00
2022-10-26T22:49:32.562Z,13.00
2022-10-26T22:52:22.637Z,13.00
2022-10-26T22:55:11.137Z,13.00
2022-10-26T22:57:59.418Z,12.90
2022-10-26T23:00:47.844Z,12.90
2022-10-26T23:03:36.790Z,13.00
2022-10-26T23:06:28.372Z,13.00
2022-10-26T23:09:16.799Z,13.00
2022-10-26T23:12:05.446Z,13.00
2022-10-26T23:14:53.796Z,13.10
2022-10-26T23:17:42.132Z,13.10
2022-10-26T23:20:33.516Z,13.10
2022-10-26T23:23:23.205Z,13.00
2022-10-26T23:26:13.666Z,12.90
2022-10-26T23:29:02.010Z,12.90
2022-10-26T23:31:50.300Z,12.80
2022-10-26T23:34:38.597Z,12.80
2022-10-26T23:37:26.893Z,12.80
2022-10-26T23:40:16.846Z,12.80
2022-10-26T23:43:05.164Z,12.80
2022-10-26T23:45:54.053Z,12.80
2022-10-26T23:48:42.346Z,12.90
2022-10-26T23:51:30.663Z,12.90
2022-10-26T23:54:18.988Z,13.00
2022-10-26T23:57:08.624Z,13.00
2022-10-26T23:59:56.935Z,13.00
